Terminal Aerodrome Forecast
Issued by NWS

Home | Current Version | Previous Version | Graphics & Text | Print | Product List | Glossary On
Versions: 1 2 3 4 5 6 7 8 9 10 11 12 13 14 15 16 17 18
000
FTUS43 KABR 152200 AAA
TAFPIR
TAF AMD
KPIR 152208Z 1522/1618 14017G25KT P6SM BKN060
     FM160200 16014KT P6SM BKN070
     FM160500 VRB04KT P6SM OVC035
     FM161200 36006KT P6SM OVC015=

USA.gov is the U.S. government's official web portal to all federal, state and local government web resources and services.